createdAt,value
2019-02-20T00:00:43.069Z,4.57
2019-02-20T00:03:11.863Z,5.50
2019-02-20T00:05:40.700Z,4.90
2019-02-20T00:08:09.496Z,5.57
2019-02-20T00:10:38.429Z,4.97
2019-02-20T00:13:07.220Z,5.40
2019-02-20T00:15:35.935Z,5.30
2019-02-20T00:18:04.668Z,5.60
2019-02-20T00:20:33.380Z,5.77
2019-02-20T00:23:02.097Z,5.80
2019-02-20T00:25:30.823Z,6.20
2019-02-20T00:27:59.623Z,6.17
2019-02-20T00:30:28.338Z,5.33
2019-02-20T00:32:57.138Z,6.40
2019-02-20T00:35:25.844Z,6.23
2019-02-20T00:37:54.572Z,6.07
2019-02-20T00:40:23.293Z,6.30
2019-02-20T00:42:51.994Z,5.40
2019-02-20T00:45:30.498Z,6.17
2019-02-20T00:48:27.413Z,6.70
2019-02-20T00:51:03.964Z,6.90
2019-02-20T00:53:37.589Z,5.77
2019-02-20T00:56:06.434Z,6.53
2019-02-20T00:58:35.240Z,5.87
2019-02-20T01:01:04.004Z,6.77
2019-02-20T01:03:32.812Z,6.17
2019-02-20T01:06:01.526Z,5.80
2019-02-20T01:08:30.244Z,6.23
2019-02-20T01:10:59.061Z,6.00
2019-02-20T01:13:27.795Z,5.70
2019-02-20T01:15:56.624Z,5.77
2019-02-20T01:18:25.384Z,5.87
2019-02-20T01:20:54.185Z,5.93
2019-02-20T01:23:22.990Z,5.93
2019-02-20T01:25:51.776Z,6.17
2019-02-20T01:28:20.552Z,5.97
2019-02-20T01:30:49.298Z,5.83
2019-02-20T01:33:18.060Z,5.73
2019-02-20T01:35:46.830Z,5.20
2019-02-20T01:38:15.575Z,5.50
2019-02-20T01:40:44.388Z,5.47
2019-02-20T01:43:13.130Z,5.00
2019-02-20T01:45:42.134Z,5.33
2019-02-20T01:48:10.878Z,5.27
2019-02-20T01:50:39.602Z,4.50
2019-02-20T01:53:10.646Z,5.23
2019-02-20T01:55:38.889Z,4.90
2019-02-20T01:58:07.662Z,4.93
2019-02-20T02:00:36.430Z,5.13
2019-02-20T02:03:05.268Z,5.60
2019-02-20T02:05:34.002Z,4.53
2019-02-20T02:08:21.840Z,4.63
2019-02-20T02:10:50.564Z,5.20
2019-02-20T02:13:19.350Z,5.07
2019-02-20T02:15:48.068Z,4.43
2019-02-20T02:18:16.787Z,4.53
2019-02-20T02:20:46.392Z,4.33
2019-02-20T02:23:19.867Z,4.37
2019-02-20T02:25:45.565Z,4.60
2019-02-20T02:28:14.360Z,4.93
2019-02-20T02:30:43.199Z,4.27
2019-02-20T02:33:11.973Z,4.17
2019-02-20T02:35:40.788Z,4.00
2019-02-20T02:38:09.491Z,4.27
2019-02-20T02:40:38.309Z,4.50
2019-02-20T02:43:07.063Z,3.77
2019-02-20T02:45:35.860Z,4.97
2019-02-20T02:48:04.624Z,4.80
2019-02-20T02:50:33.363Z,4.07
2019-02-20T02:53:02.059Z,3.43
2019-02-20T02:55:30.798Z,4.37
2019-02-20T02:57:59.603Z,4.60
2019-02-20T03:00:28.410Z,4.60
2019-02-20T03:02:57.219Z,4.50
2019-02-20T03:05:26.049Z,4.50
2019-02-20T03:07:54.863Z,4.00
2019-02-20T03:10:23.572Z,3.80
2019-02-20T03:12:52.354Z,5.03
2019-02-20T03:15:21.268Z,5.63
2019-02-20T03:17:49.999Z,5.00
2019-02-20T03:20:18.816Z,4.77
2019-02-20T03:22:47.634Z,5.00
2019-02-20T03:25:16.376Z,4.03
2019-02-20T03:27:45.146Z,4.90
2019-02-20T03:30:13.957Z,4.17
2019-02-20T03:32:42.759Z,4.57
2019-02-20T03:35:11.480Z,4.00
2019-02-20T03:37:40.283Z,4.27
2019-02-20T03:40:09.179Z,4.43
2019-02-20T03:42:37.965Z,4.63
2019-02-20T03:45:06.765Z,4.47
2019-02-20T03:47:35.673Z,3.83
2019-02-20T03:50:04.472Z,5.37
2019-02-20T03:52:33.262Z,4.70
2019-02-20T03:55:02.020Z,5.70
2019-02-20T03:57:30.795Z,5.63
2019-02-20T03:59:59.500Z,5.47
2019-02-20T04:02:28.271Z,6.00
2019-02-20T04:04:57.054Z,5.23
2019-02-20T04:07:32.991Z,6.37
2019-02-20T04:10:01.717Z,6.50
2019-02-20T04:12:30.493Z,6.27
2019-02-20T04:14:59.286Z,5.60
2019-02-20T04:17:28.056Z,6.93
2019-02-20T04:19:56.759Z,6.27
2019-02-20T04:22:25.742Z,6.23
2019-02-20T04:24:54.451Z,6.77
2019-02-20T04:27:23.209Z,7.03
2019-02-20T04:29:51.942Z,7.57
2019-02-20T04:32:20.749Z,7.30
2019-02-20T04:34:49.455Z,7.53
2019-02-20T04:37:18.214Z,7.57
2019-02-20T04:39:46.928Z,7.97
2019-02-20T04:42:15.661Z,7.50
2019-02-20T04:44:44.462Z,7.90
2019-02-20T04:47:13.204Z,8.67
2019-02-20T04:49:41.930Z,8.30
2019-02-20T04:52:10.752Z,7.57
2019-02-20T04:54:39.547Z,9.20
2019-02-20T04:57:08.235Z,9.10
2019-02-20T04:59:37.044Z,8.17
2019-02-20T05:02:05.770Z,8.77
2019-02-20T05:04:34.562Z,8.70
2019-02-20T05:07:03.380Z,9.13
2019-02-20T05:09:32.153Z,8.43
2019-02-20T05:12:00.967Z,9.03
2019-02-20T05:14:29.807Z,8.90
2019-02-20T05:16:58.602Z,8.53
2019-02-20T05:19:27.413Z,8.67
2019-02-20T05:21:56.138Z,8.50
2019-02-20T05:24:25.353Z,9.20
2019-02-20T05:26:54.125Z,8.77
2019-02-20T05:29:22.960Z,8.93
2019-02-20T05:31:51.737Z,8.53
2019-02-20T05:34:20.548Z,9.53
2019-02-20T05:36:49.319Z,7.73
2019-02-20T05:39:18.089Z,8.17
2019-02-20T05:41:46.854Z,9.00
2019-02-20T05:44:15.656Z,8.23
2019-02-20T05:46:44.388Z,7.87
2019-02-20T05:49:13.128Z,8.33
2019-02-20T05:51:41.965Z,9.63
2019-02-20T05:54:10.746Z,8.77
2019-02-20T05:56:39.536Z,8.87
2019-02-20T05:59:08.348Z,6.27
2019-02-20T06:01:37.153Z,8.37
2019-02-20T06:04:05.941Z,8.67
2019-02-20T06:06:34.769Z,8.60
2019-02-20T06:09:04.635Z,8.53
2019-02-20T06:11:33.420Z,8.97
2019-02-20T06:14:02.164Z,8.27
2019-02-20T06:16:30.956Z,8.43
2019-02-20T06:18:59.726Z,8.63
2019-02-20T06:21:28.463Z,8.60
2019-02-20T06:23:59.837Z,8.67
2019-02-20T06:26:33.156Z,9.40
2019-02-20T06:29:01.991Z,8.30
2019-02-20T06:31:44.433Z,8.53
2019-02-20T06:34:20.268Z,8.73
2019-02-20T06:37:19.900Z,8.73
2019-02-20T06:39:50.722Z,8.87
2019-02-20T06:45:25.541Z,8.50
2019-02-20T06:47:54.231Z,8.27
2019-02-20T06:50:22.977Z,9.23
2019-02-20T06:52:51.707Z,8.70
2019-02-20T06:55:20.454Z,8.27
2019-02-20T06:57:49.223Z,9.10
2019-02-20T07:00:18.052Z,9.07
2019-02-20T07:02:46.855Z,8.37
2019-02-20T07:05:50.169Z,10.50
2019-02-20T07:08:50.375Z,9.63
2019-02-20T07:11:50.319Z,9.13
2019-02-20T07:14:26.851Z,9.37
2019-02-20T07:17:29.815Z,9.50
2019-02-20T07:20:20.559Z,8.60
2019-02-20T07:23:02.424Z,9.17
2019-02-20T07:25:37.932Z,8.77
2019-02-20T07:28:31.764Z,9.30
2019-02-20T07:31:00.558Z,8.77
2019-02-20T07:33:29.355Z,9.57
2019-02-20T07:35:58.171Z,9.20
2019-02-20T07:38:26.914Z,9.30
2019-02-20T07:40:55.746Z,9.60
2019-02-20T07:43:24.482Z,9.97
2019-02-20T07:45:53.318Z,9.37
2019-02-20T07:48:22.045Z,9.23
2019-02-20T07:50:50.866Z,10.43
2019-02-20T07:53:19.650Z,9.23
2019-02-20T07:55:48.418Z,10.13
2019-02-20T07:58:17.184Z,10.00
2019-02-20T08:00:45.883Z,10.33
2019-02-20T08:03:14.610Z,10.00
2019-02-20T08:05:43.438Z,10.13
2019-02-20T08:08:12.159Z,9.73
2019-02-20T08:10:40.896Z,10.07
2019-02-20T08:13:09.724Z,9.13
2019-02-20T08:15:38.451Z,10.03
2019-02-20T08:18:07.252Z,10.43
2019-02-20T08:20:35.981Z,9.70
2019-02-20T08:23:04.732Z,10.63
2019-02-20T08:25:33.450Z,11.47
2019-02-20T08:28:02.215Z,10.00
2019-02-20T08:30:31.028Z,10.97
2019-02-20T08:32:59.888Z,11.03
2019-02-20T08:35:28.720Z,10.23
2019-02-20T08:37:57.470Z,10.90
2019-02-20T08:40:26.172Z,10.90
2019-02-20T08:42:55.012Z,10.67
2019-02-20T08:45:23.799Z,10.73
2019-02-20T08:47:52.531Z,10.60
2019-02-20T08:50:21.276Z,10.23
2019-02-20T08:52:50.084Z,11.57
2019-02-20T08:55:19.061Z,10.03
2019-02-20T08:57:48.044Z,10.47
2019-02-20T09:00:16.981Z,9.73
2019-02-20T09:02:45.717Z,10.00
2019-02-20T09:05:14.553Z,10.17
2019-02-20T09:07:43.368Z,9.80
2019-02-20T09:10:12.175Z,10.67
2019-02-20T09:12:40.991Z,10.87
2019-02-20T09:15:09.795Z,11.30
2019-02-20T09:17:38.621Z,9.10
2019-02-20T09:20:07.761Z,10.10
2019-02-20T09:22:36.576Z,9.67
2019-02-20T09:25:06.101Z,9.23
2019-02-20T09:27:35.039Z,9.63
2019-02-20T09:30:03.783Z,9.07
2019-02-20T09:32:32.567Z,10.47
2019-02-20T09:35:01.308Z,10.10
2019-02-20T09:37:30.120Z,9.77
2019-02-20T09:39:58.910Z,9.77
2019-02-20T09:42:27.665Z,9.50
2019-02-20T09:44:56.400Z,10.50
2019-02-20T09:47:25.101Z,10.43
2019-02-20T09:49:53.865Z,9.77
2019-02-20T09:52:22.591Z,10.70
2019-02-20T09:54:51.334Z,9.43
2019-02-20T09:57:20.072Z,9.73
2019-02-20T09:59:48.871Z,10.03
2019-02-20T10:02:17.585Z,10.20
2019-02-20T10:04:46.417Z,9.50
2019-02-20T10:07:15.211Z,9.80
2019-02-20T10:09:43.931Z,9.77
2019-02-20T10:12:12.687Z,9.93
2019-02-20T10:14:41.455Z,9.87
2019-02-20T10:17:10.189Z,10.10
2019-02-20T10:19:38.935Z,10.73
2019-02-20T10:22:07.667Z,9.27
2019-02-20T10:24:36.427Z,11.10
2019-02-20T10:27:05.177Z,10.07
2019-02-20T10:29:36.766Z,10.10
2019-02-20T10:32:05.529Z,9.70
2019-02-20T10:34:34.420Z,10.37
2019-02-20T10:37:03.151Z,10.37
2019-02-20T10:39:31.965Z,9.87
2019-02-20T10:42:01.057Z,9.83
2019-02-20T10:44:29.786Z,10.37
2019-02-20T10:46:58.638Z,9.20
2019-02-20T10:49:27.450Z,8.93
2019-02-20T10:51:56.145Z,9.00
2019-02-20T10:54:24.953Z,9.17
2019-02-20T10:56:53.717Z,9.03
2019-02-20T10:59:22.477Z,9.63
2019-02-20T11:01:51.302Z,9.00
2019-02-20T11:04:20.106Z,8.93
2019-02-20T11:06:48.918Z,10.47
2019-02-20T11:09:17.723Z,9.53
2019-02-20T11:11:46.541Z,10.40
2019-02-20T11:14:15.386Z,9.80
2019-02-20T11:16:44.376Z,9.93
2019-02-20T11:19:13.097Z,8.97
2019-02-20T11:21:41.930Z,9.30
2019-02-20T11:24:10.660Z,9.47
2019-02-20T11:26:46.266Z,10.97
2019-02-20T11:29:09.909Z,10.27
2019-02-20T11:31:38.668Z,9.80
2019-02-20T11:34:07.486Z,9.20
2019-02-20T11:36:37.277Z,8.97
2019-02-20T11:39:06.402Z,9.67
2019-02-20T11:41:35.217Z,9.80
2019-02-20T11:44:04.011Z,10.10
2019-02-20T11:46:36.465Z,9.63
2019-02-20T11:49:05.170Z,10.27
2019-02-20T11:51:33.927Z,9.33
2019-02-20T11:54:02.646Z,10.00
2019-02-20T11:56:31.505Z,10.03
2019-02-20T11:59:00.294Z,9.73
2019-02-20T12:01:29.037Z,9.57
2019-02-20T12:03:57.775Z,10.70
2019-02-20T12:06:26.512Z,10.93
2019-02-20T12:08:55.674Z,10.80
2019-02-20T12:11:24.561Z,10.77
2019-02-20T12:13:53.314Z,10.90
2019-02-20T12:16:22.115Z,12.10
2019-02-20T12:18:50.884Z,8.63
2019-02-20T12:21:19.696Z,9.97
2019-02-20T12:23:48.436Z,10.20
2019-02-20T12:26:17.267Z,10.17
2019-02-20T12:28:47.227Z,9.67
2019-02-20T12:31:16.201Z,9.27
2019-02-20T12:33:45.062Z,10.37
2019-02-20T12:36:13.808Z,10.27
2019-02-20T12:38:42.533Z,9.43
2019-02-20T12:41:11.418Z,11.23
2019-02-20T12:43:40.206Z,10.77
2019-02-20T12:46:08.998Z,10.60
2019-02-20T12:48:39.027Z,10.87
2019-02-20T12:51:07.954Z,10.37
2019-02-20T12:53:36.787Z,11.97
2019-02-20T12:56:09.938Z,11.70
2019-02-20T12:58:36.020Z,12.20
2019-02-20T13:01:04.764Z,12.23
2019-02-20T13:03:33.520Z,12.07
2019-02-20T13:06:02.242Z,12.90
2019-02-20T13:08:31.065Z,13.37
2019-02-20T13:10:59.768Z,13.20
2019-02-20T13:13:28.534Z,12.97
2019-02-20T13:15:57.272Z,12.07
2019-02-20T13:18:26.016Z,12.13
2019-02-20T13:20:54.827Z,11.23
2019-02-20T13:23:23.645Z,12.03
2019-02-20T13:25:52.461Z,13.23
2019-02-20T13:28:21.301Z,11.60
2019-02-20T13:30:50.097Z,11.37
2019-02-20T13:33:18.861Z,9.97
2019-02-20T13:35:47.629Z,10.50
2019-02-20T13:38:16.479Z,10.60
2019-02-20T13:40:45.241Z,9.77
2019-02-20T13:43:14.080Z,11.50
2019-02-20T13:45:43.288Z,10.20
2019-02-20T13:48:12.106Z,9.27
2019-02-20T13:50:40.993Z,9.03
2019-02-20T13:53:09.897Z,9.30
2019-02-20T13:55:38.697Z,9.70
2019-02-20T13:58:07.522Z,9.20
2019-02-20T14:00:36.340Z,8.67
2019-02-20T14:03:05.475Z,8.80
2019-02-20T14:05:34.279Z,8.70
2019-02-20T14:08:03.101Z,10.53
2019-02-20T14:10:31.961Z,10.70
2019-02-20T14:13:00.793Z,9.73
2019-02-20T14:15:30.091Z,9.30
2019-02-20T14:17:58.875Z,9.73
2019-02-20T14:20:27.674Z,9.17
2019-02-20T14:23:01.186Z,9.57
2019-02-20T14:25:30.010Z,9.33
2019-02-20T14:27:58.812Z,9.00
2019-02-20T14:30:27.659Z,9.37
2019-02-20T14:32:56.449Z,9.80
2019-02-20T14:35:25.269Z,9.47
2019-02-20T14:37:54.107Z,8.67
2019-02-20T14:40:22.888Z,9.07
2019-02-20T14:42:53.292Z,8.80
2019-02-20T14:45:22.138Z,9.83
2019-02-20T14:47:50.939Z,9.30
2019-02-20T14:50:20.049Z,9.97
2019-02-20T14:52:48.883Z,10.77
2019-02-20T14:55:17.708Z,10.60
2019-02-20T14:57:46.562Z,10.20
2019-02-20T15:00:15.404Z,9.80
2019-02-20T15:02:44.194Z,10.27
2019-02-20T15:05:15.800Z,10.60
2019-02-20T15:07:44.596Z,10.57
2019-02-20T15:10:13.432Z,9.63
2019-02-20T15:12:42.274Z,8.27
2019-02-20T15:15:11.122Z,9.80
2019-02-20T15:17:39.920Z,9.80
2019-02-20T15:20:08.857Z,9.60
2019-02-20T15:22:38.544Z,10.33
2019-02-20T15:25:07.532Z,10.70
2019-02-20T15:27:36.338Z,10.60
2019-02-20T15:30:05.842Z,10.83
2019-02-20T15:32:34.636Z,11.47
2019-02-20T15:35:03.977Z,11.83
2019-02-20T15:37:33.499Z,11.07
2019-02-20T15:40:02.316Z,11.80
2019-02-20T15:42:32.316Z,12.13
2019-02-20T15:45:01.197Z,11.67
2019-02-20T15:47:32.095Z,11.60
2019-02-20T15:50:00.946Z,13.73
2019-02-20T15:52:30.133Z,12.30
2019-02-20T15:54:58.891Z,11.10
2019-02-20T15:57:27.701Z,11.80
2019-02-20T15:59:58.589Z,11.83
2019-02-20T16:02:27.397Z,12.13
2019-02-20T16:04:58.524Z,12.10
2019-02-20T16:07:27.366Z,10.17
2019-02-20T16:09:56.198Z,10.67
2019-02-20T16:12:26.392Z,10.53
2019-02-20T16:14:55.148Z,9.77
2019-02-20T16:17:23.990Z,9.87
2019-02-20T16:19:52.839Z,10.57
2019-02-20T16:22:21.619Z,9.67
2019-02-20T16:24:52.629Z,10.40
2019-02-20T16:27:21.462Z,10.20
2019-02-20T16:29:50.311Z,9.57
2019-02-20T16:32:19.115Z,7.03
2019-02-20T16:34:48.323Z,8.40
2019-02-20T16:37:17.126Z,8.23
2019-02-20T16:39:46.199Z,8.67
2019-02-20T16:42:16.123Z,8.97
2019-02-20T16:44:49.597Z,8.90
2019-02-20T16:47:18.456Z,8.20
2019-02-20T16:49:47.308Z,8.13
2019-02-20T16:52:16.248Z,7.93
2019-02-20T16:54:46.790Z,7.73
2019-02-20T16:57:17.159Z,7.37
2019-02-20T16:59:46.994Z,7.23
2019-02-20T17:02:15.816Z,7.70
2019-02-20T17:04:47.185Z,7.23
2019-02-20T17:07:16.157Z,7.37
2019-02-20T17:09:45.385Z,7.03
2019-02-20T17:12:14.215Z,8.97
2019-02-20T17:14:43.062Z,6.50
2019-02-20T17:17:11.950Z,5.57
2019-02-20T17:19:40.807Z,5.23
2019-02-20T17:22:09.663Z,5.97
2019-02-20T17:24:38.460Z,4.80
2019-02-20T17:27:07.298Z,7.23
2019-02-20T17:29:36.144Z,4.73
2019-02-20T17:32:06.162Z,4.50
2019-02-20T17:34:35.025Z,4.40
2019-02-20T17:37:06.654Z,4.27
2019-02-20T17:39:35.443Z,4.20
2019-02-20T17:42:04.312Z,4.20
2019-02-20T17:44:33.140Z,3.60
2019-02-20T17:47:03.758Z,3.93
2019-02-20T17:49:34.946Z,4.20
2019-02-20T17:52:06.257Z,3.47
2019-02-20T17:54:40.928Z,3.30
2019-02-20T17:57:11.230Z,3.50
2019-02-20T17:59:41.718Z,3.90
2019-02-20T18:02:10.961Z,3.53
2019-02-20T18:04:39.785Z,3.87
2019-02-20T18:07:11.826Z,4.03
2019-02-20T18:09:42.433Z,3.83
2019-02-20T18:12:11.391Z,3.90
2019-02-20T18:14:40.131Z,3.97
2019-02-20T18:17:09.036Z,3.73
2019-02-20T18:19:39.952Z,3.50
2019-02-20T18:22:08.737Z,3.67
2019-02-20T18:24:37.576Z,3.13
2019-02-20T18:27:06.437Z,3.70
2019-02-20T18:29:35.243Z,3.43
2019-02-20T18:32:04.050Z,3.20
2019-02-20T18:34:32.935Z,3.70
2019-02-20T18:37:09.739Z,3.60
2019-02-20T18:39:41.356Z,3.97
2019-02-20T18:42:10.331Z,3.77
2019-02-20T18:44:50.919Z,3.40
2019-02-20T18:47:19.720Z,3.67
2019-02-20T18:49:54.258Z,3.63
2019-02-20T18:52:24.289Z,3.50
2019-02-20T18:54:53.119Z,3.57
2019-02-20T18:57:21.942Z,3.67
2019-02-20T18:59:50.782Z,3.53
2019-02-20T19:02:20.734Z,3.60
2019-02-20T19:04:49.648Z,3.57
2019-02-20T19:07:19.999Z,3.33
2019-02-20T19:09:49.294Z,3.70
2019-02-20T19:12:52.311Z,3.40
2019-02-20T19:15:32.801Z,3.47
2019-02-20T19:18:12.539Z,3.63
2019-02-20T19:21:06.336Z,3.37
2019-02-20T19:24:06.364Z,3.60
2019-02-20T19:26:47.498Z,3.60
2019-02-20T19:29:38.461Z,4.33
2019-02-20T19:32:25.102Z,4.70
2019-02-20T19:35:15.746Z,3.73
2019-02-20T19:37:54.123Z,3.93
2019-02-20T19:40:41.211Z,3.97
2019-02-20T19:43:31.477Z,3.53
2019-02-20T19:46:34.799Z,3.87
2019-02-20T19:49:27.591Z,3.97
2019-02-20T19:52:07.269Z,3.70
2019-02-20T19:54:44.544Z,4.00
2019-02-20T19:57:38.516Z,3.90
2019-02-20T20:00:26.277Z,4.27
2019-02-20T20:03:20.279Z,3.33
2019-02-20T20:06:07.130Z,4.00
2019-02-20T20:08:44.396Z,4.47
2019-02-20T20:11:44.491Z,3.97
2019-02-20T20:14:13.704Z,3.80
2019-02-20T20:17:04.769Z,4.10
2019-02-20T20:19:52.813Z,4.03
2019-02-20T20:22:40.791Z,4.10
2019-02-20T20:25:16.189Z,3.80
2019-02-20T20:27:58.055Z,3.87
2019-02-20T20:30:40.865Z,4.53
2019-02-20T20:33:34.949Z,3.70
2019-02-20T20:36:35.255Z,4.23
2019-02-20T20:39:28.464Z,4.73
2019-02-20T20:42:28.624Z,4.23
2019-02-20T20:45:16.666Z,4.40
2019-02-20T20:48:12.131Z,4.33
2019-02-20T20:50:56.364Z,4.03
2019-02-20T20:53:30.437Z,3.13
2019-02-20T20:56:03.235Z,4.30
2019-02-20T20:58:51.290Z,4.33
2019-02-20T21:01:51.683Z,5.17
2019-02-20T21:04:57.754Z,4.10
2019-02-20T21:07:44.749Z,4.43
2019-02-20T21:10:46.562Z,4.77
2019-02-20T21:13:46.652Z,4.53
2019-02-20T21:16:33.432Z,5.00
2019-02-20T21:19:21.842Z,4.57
2019-02-20T21:22:10.091Z,4.50
2019-02-20T21:24:54.916Z,5.13
2019-02-20T21:27:45.822Z,4.50
2019-02-20T21:30:37.100Z,5.50
2019-02-20T21:33:23.796Z,5.30
2019-02-20T21:35:58.787Z,5.30
2019-02-20T21:38:45.431Z,4.87
2019-02-20T21:41:32.253Z,5.27
2019-02-20T21:44:20.259Z,5.10
2019-02-20T21:47:02.600Z,5.60
2019-02-20T21:49:36.986Z,5.07
2019-02-20T21:52:30.826Z,5.93
2019-02-20T21:55:06.984Z,5.60
2019-02-20T21:58:10.376Z,5.73
2019-02-20T22:00:49.633Z,5.27
2019-02-20T22:03:52.709Z,5.27
2019-02-20T22:06:25.598Z,5.60
2019-02-20T22:09:16.344Z,5.20
2019-02-20T22:12:06.990Z,5.57
2019-02-20T22:14:40.334Z,6.03
2019-02-20T22:17:28.429Z,5.73
2019-02-20T22:20:03.912Z,5.90
2019-02-20T22:23:00.873Z,5.63
2019-02-20T22:25:33.095Z,5.83
2019-02-20T22:28:16.931Z,5.70
2019-02-20T22:30:53.244Z,5.83
2019-02-20T22:33:41.116Z,6.60
2019-02-20T22:36:23.454Z,6.60
2019-02-20T22:39:14.160Z,7.07
2019-02-20T22:42:02.073Z,6.33
2019-02-20T22:44:55.423Z,6.20
2019-02-20T22:47:42.208Z,7.27
2019-02-20T22:50:32.244Z,6.67
2019-02-20T22:53:04.439Z,6.77
2019-02-20T22:55:49.485Z,7.17
2019-02-20T22:58:28.226Z,6.47
2019-02-20T23:01:04.852Z,6.30
2019-02-20T23:03:36.035Z,6.60
2019-02-20T23:06:17.505Z,6.50
2019-02-20T23:08:56.653Z,6.87
2019-02-20T23:11:50.916Z,6.70
2019-02-20T23:14:35.499Z,7.17
2019-02-20T23:17:04.210Z,7.97
2019-02-20T23:19:33.000Z,7.00
2019-02-20T23:22:01.757Z,7.63
2019-02-20T23:24:30.537Z,7.83
2019-02-20T23:26:59.261Z,7.17
2019-02-20T23:29:28.054Z,7.83
2019-02-20T23:31:56.784Z,7.47
2019-02-20T23:34:25.506Z,7.40
2019-02-20T23:36:56.321Z,9.70
2019-02-20T23:39:25.064Z,8.67
2019-02-20T23:41:53.884Z,8.50
2019-02-20T23:44:22.631Z,8.67
2019-02-20T23:46:51.430Z,7.43
2019-02-20T23:49:20.168Z,8.73
2019-02-20T23:51:48.998Z,8.53
2019-02-20T23:54:17.784Z,7.47
2019-02-20T23:56:46.616Z,8.97
2019-02-20T23:59:15.420Z,8.43
